sensor_id;sensor_type;location;lat;lon;timestamp;pressure;altitude;pressure_sealevel;temperature;humidity
59391;BME280;53405;57.012;40.984;2023-05-16T00:00:30;100865.25;;;10.60;67.22
59391;BME280;53405;57.012;40.984;2023-05-16T00:03:01;100868.66;;;10.52;67.36
59391;BME280;53405;57.012;40.984;2023-05-16T00:05:30;100875.06;;;10.49;67.67
59391;BME280;53405;57.012;40.984;2023-05-16T00:07:57;100867.78;;;10.43;68.30
59391;BME280;53405;57.012;40.984;2023-05-16T00:10:25;100871.88;;;10.38;68.00
59391;BME280;53405;57.012;40.984;2023-05-16T00:12:52;100864.94;;;10.37;68.07
59391;BME280;53405;57.012;40.984;2023-05-16T00:15:20;100876.44;;;10.36;68.42
59391;BME280;53405;57.012;40.984;2023-05-16T00:17:49;100873.28;;;10.32;68.56
59391;BME280;53405;57.012;40.984;2023-05-16T00:20:17;100875.53;;;10.27;68.49
59391;BME280;53405;57.012;40.984;2023-05-16T00:22:49;100874.50;;;10.20;69.05
59391;BME280;53405;57.012;40.984;2023-05-16T00:25:17;100872.16;;;10.17;69.29
59391;BME280;53405;57.012;40.984;2023-05-16T00:27:46;100870.44;;;10.07;68.90
59391;BME280;53405;57.012;40.984;2023-05-16T00:30:14;100873.41;;;10.04;69.25
59391;BME280;53405;57.012;40.984;2023-05-16T00:32:43;100875.50;;;10.01;69.14
59391;BME280;53405;57.012;40.984;2023-05-16T00:35:11;100870.19;;;9.92;70.00
59391;BME280;53405;57.012;40.984;2023-05-16T00:37:39;100858.59;;;9.85;69.97
59391;BME280;53405;57.012;40.984;2023-05-16T00:40:07;100865.22;;;9.89;69.87
59391;BME280;53405;57.012;40.984;2023-05-16T00:42:35;100861.31;;;9.93;69.98
59391;BME280;53405;57.012;40.984;2023-05-16T00:45:04;100868.38;;;9.93;70.37
59391;BME280;53405;57.012;40.984;2023-05-16T00:47:33;100859.59;;;9.84;70.36
59391;BME280;53405;57.012;40.984;2023-05-16T00:50:02;100866.28;;;9.79;70.13
59391;BME280;53405;57.012;40.984;2023-05-16T00:52:32;100873.81;;;9.73;70.06
59391;BME280;53405;57.012;40.984;2023-05-16T00:55:02;100880.03;;;9.72;70.24
59391;BME280;53405;57.012;40.984;2023-05-16T00:57:33;100869.81;;;9.69;70.43
59391;BME280;53405;57.012;40.984;2023-05-16T01:00:06;100874.63;;;9.74;70.33
59391;BME280;53405;57.012;40.984;2023-05-16T01:02:37;100870.22;;;9.74;70.65
59391;BME280;53405;57.012;40.984;2023-05-16T01:05:05;100871.84;;;9.75;70.26
59391;BME280;53405;57.012;40.984;2023-05-16T01:07:35;100868.69;;;9.72;70.73
59391;BME280;53405;57.012;40.984;2023-05-16T01:10:03;100870.66;;;9.70;70.40
59391;BME280;53405;57.012;40.984;2023-05-16T01:15:21;100876.06;;;9.50;70.36
59391;BME280;53405;57.012;40.984;2023-05-16T01:26:10;100856.19;;;9.20;70.42
59391;BME280;53405;57.012;40.984;2023-05-16T01:28:40;100878.66;;;9.32;70.86
59391;BME280;53405;57.012;40.984;2023-05-16T01:31:08;100886.19;;;9.27;70.83
59391;BME280;53405;57.012;40.984;2023-05-16T01:33:36;100893.91;;;9.29;71.15
59391;BME280;53405;57.012;40.984;2023-05-16T01:36:18;100892.25;;;9.28;71.36
59391;BME280;53405;57.012;40.984;2023-05-16T01:39:00;100896.00;;;9.25;71.85
59391;BME280;53405;57.012;40.984;2023-05-16T01:44:06;100865.47;;;9.14;72.24
59391;BME280;53405;57.012;40.984;2023-05-16T01:46:39;100893.63;;;9.32;72.44
59391;BME280;53405;57.012;40.984;2023-05-16T01:49:21;100887.53;;;9.31;72.41
59391;BME280;53405;57.012;40.984;2023-05-16T01:51:55;100897.06;;;9.32;72.33
59391;BME280;53405;57.012;40.984;2023-05-16T01:54:30;100869.34;;;9.20;72.17
59391;BME280;53405;57.012;40.984;2023-05-16T01:56:58;100887.31;;;9.43;71.94
59391;BME280;53405;57.012;40.984;2023-05-16T01:59:27;100897.53;;;9.46;71.97
59391;BME280;53405;57.012;40.984;2023-05-16T02:01:58;100858.22;;;9.26;72.14
59391;BME280;53405;57.012;40.984;2023-05-16T02:04:26;100891.81;;;9.50;71.55
59391;BME280;53405;57.012;40.984;2023-05-16T02:06:53;100900.13;;;9.55;71.31
59391;BME280;53405;57.012;40.984;2023-05-16T02:09:21;100899.34;;;9.63;71.13
59391;BME280;53405;57.012;40.984;2023-05-16T02:11:48;100891.84;;;9.68;71.56
59391;BME280;53405;57.012;40.984;2023-05-16T02:14:16;100904.94;;;9.78;71.47
59391;BME280;53405;57.012;40.984;2023-05-16T02:16:47;100894.78;;;9.83;71.07
59391;BME280;53405;57.012;40.984;2023-05-16T02:19:16;100904.69;;;9.89;71.34
59391;BME280;53405;57.012;40.984;2023-05-16T02:21:44;100914.47;;;9.97;70.75
59391;BME280;53405;57.012;40.984;2023-05-16T02:24:11;100901.97;;;9.99;70.70
59391;BME280;53405;57.012;40.984;2023-05-16T02:26:39;100903.19;;;10.05;70.02
59391;BME280;53405;57.012;40.984;2023-05-16T02:29:08;100897.09;;;10.04;69.80
59391;BME280;53405;57.012;40.984;2023-05-16T02:31:36;100899.78;;;10.12;70.25
59391;BME280;53405;57.012;40.984;2023-05-16T02:34:04;100906.94;;;10.20;69.68
59391;BME280;53405;57.012;40.984;2023-05-16T02:36:31;100878.34;;;10.07;69.40
59391;BME280;53405;57.012;40.984;2023-05-16T02:39:01;100898.72;;;10.23;68.81
59391;BME280;53405;57.012;40.984;2023-05-16T02:41:29;100911.94;;;10.31;69.04
59391;BME280;53405;57.012;40.984;2023-05-16T02:43:57;100913.44;;;10.34;68.95
59391;BME280;53405;57.012;40.984;2023-05-16T02:46:27;100901.84;;;10.45;68.73
59391;BME280;53405;57.012;40.984;2023-05-16T02:48:57;100901.34;;;10.41;69.07
59391;BME280;53405;57.012;40.984;2023-05-16T02:51:26;100917.06;;;10.59;68.88
59391;BME280;53405;57.012;40.984;2023-05-16T02:53:54;100910.78;;;10.52;69.91
59391;BME280;53405;57.012;40.984;2023-05-16T02:56:26;100904.91;;;10.58;70.29
59391;BME280;53405;57.012;40.984;2023-05-16T02:58:54;100916.47;;;10.65;69.81
59391;BME280;53405;57.012;40.984;2023-05-16T03:01:22;100922.19;;;10.87;69.20
59391;BME280;53405;57.012;40.984;2023-05-16T03:03:50;100914.94;;;10.89;69.44
59391;BME280;53405;57.012;40.984;2023-05-16T03:06:18;100913.97;;;10.90;69.27
59391;BME280;53405;57.012;40.984;2023-05-16T03:08:45;100916.03;;;11.13;68.34
59391;BME280;53405;57.012;40.984;2023-05-16T03:11:17;100912.59;;;11.20;68.27
59391;BME280;53405;57.012;40.984;2023-05-16T03:13:51;100924.00;;;11.21;69.05
59391;BME280;53405;57.012;40.984;2023-05-16T03:16:19;100911.97;;;11.27;69.25
59391;BME280;53405;57.012;40.984;2023-05-16T03:18:47;100902.06;;;11.29;68.60
59391;BME280;53405;57.012;40.984;2023-05-16T03:21:14;100917.09;;;11.36;67.95
59391;BME280;53405;57.012;40.984;2023-05-16T03:23:44;100916.34;;;11.61;66.97
59391;BME280;53405;57.012;40.984;2023-05-16T03:26:12;100906.13;;;11.66;66.69
59391;BME280;53405;57.012;40.984;2023-05-16T03:28:40;100919.47;;;11.56;66.99
59391;BME280;53405;57.012;40.984;2023-05-16T03:31:08;100913.22;;;11.73;66.69
59391;BME280;53405;57.012;40.984;2023-05-16T03:33:36;100914.53;;;11.78;66.30
59391;BME280;53405;57.012;40.984;2023-05-16T03:36:03;100917.91;;;11.96;66.11
59391;BME280;53405;57.012;40.984;2023-05-16T03:38:31;100914.59;;;12.10;66.30
59391;BME280;53405;57.012;40.984;2023-05-16T03:41:00;100920.38;;;12.14;66.12
59391;BME280;53405;57.012;40.984;2023-05-16T03:43:27;100918.41;;;12.16;65.49
59391;BME280;53405;57.012;40.984;2023-05-16T03:45:55;100918.56;;;12.39;64.68
59391;BME280;53405;57.012;40.984;2023-05-16T03:48:23;100923.66;;;12.41;63.34
59391;BME280;53405;57.012;40.984;2023-05-16T03:50:50;100877.94;;;12.32;64.87
59391;BME280;53405;57.012;40.984;2023-05-16T03:53:18;100931.03;;;12.70;63.67
59391;BME280;53405;57.012;40.984;2023-05-16T03:55:46;100922.59;;;12.75;62.88
59391;BME280;53405;57.012;40.984;2023-05-16T03:58:14;100928.47;;;13.01;60.54
59391;BME280;53405;57.012;40.984;2023-05-16T04:00:42;100931.44;;;12.98;62.81
59391;BME280;53405;57.012;40.984;2023-05-16T04:03:12;100928.75;;;13.15;57.70
59391;BME280;53405;57.012;40.984;2023-05-16T04:05:39;100931.00;;;13.34;57.93
59391;BME280;53405;57.012;40.984;2023-05-16T04:08:07;100889.59;;;13.10;58.94
59391;BME280;53405;57.012;40.984;2023-05-16T04:10:35;100925.03;;;13.41;58.84
59391;BME280;53405;57.012;40.984;2023-05-16T04:13:03;100925.97;;;13.48;58.49
59391;BME280;53405;57.012;40.984;2023-05-16T04:15:30;100930.66;;;13.69;56.80
59391;BME280;53405;57.012;40.984;2023-05-16T04:17:58;100929.09;;;13.74;54.46
59391;BME280;53405;57.012;40.984;2023-05-16T04:20:26;100926.78;;;13.80;55.37
59391;BME280;53405;57.012;40.984;2023-05-16T04:22:53;100925.06;;;13.87;55.44
59391;BME280;53405;57.012;40.984;2023-05-16T04:25:21;100929.81;;;13.91;55.89
59391;BME280;53405;57.012;40.984;2023-05-16T04:27:49;100928.13;;;13.99;55.31
59391;BME280;53405;57.012;40.984;2023-05-16T04:30:17;100934.69;;;14.03;55.02
59391;BME280;53405;57.012;40.984;2023-05-16T04:32:45;100926.56;;;14.27;52.94
59391;BME280;53405;57.012;40.984;2023-05-16T04:35:13;100928.84;;;14.45;51.89
59391;BME280;53405;57.012;40.984;2023-05-16T04:37:40;100930.66;;;14.68;51.93
59391;BME280;53405;57.012;40.984;2023-05-16T04:40:09;100911.19;;;14.76;51.45
59391;BME280;53405;57.012;40.984;2023-05-16T04:42:37;100928.63;;;14.85;50.49
59391;BME280;53405;57.012;40.984;2023-05-16T04:45:05;100932.03;;;14.94;50.31
59391;BME280;53405;57.012;40.984;2023-05-16T04:47:37;100924.81;;;15.03;51.70
59391;BME280;53405;57.012;40.984;2023-05-16T04:50:05;100922.97;;;15.03;52.30
59391;BME280;53405;57.012;40.984;2023-05-16T04:52:36;100929.53;;;15.22;50.56
59391;BME280;53405;57.012;40.984;2023-05-16T04:55:05;100916.91;;;15.24;50.33
59391;BME280;53405;57.012;40.984;2023-05-16T04:57:32;100921.09;;;15.33;49.70
59391;BME280;53405;57.012;40.984;2023-05-16T05:00:00;100934.06;;;15.43;49.37
59391;BME280;53405;57.012;40.984;2023-05-16T05:02:30;100921.25;;;15.47;49.46
59391;BME280;53405;57.012;40.984;2023-05-16T05:04:58;100926.88;;;15.59;47.91
59391;BME280;53405;57.012;40.984;2023-05-16T05:07:25;100924.38;;;15.72;47.03
59391;BME280;53405;57.012;40.984;2023-05-16T05:09:55;100922.53;;;15.72;47.85
59391;BME280;53405;57.012;40.984;2023-05-16T05:12:22;100914.28;;;15.82;47.49
59391;BME280;53405;57.012;40.984;2023-05-16T05:14:50;100924.28;;;16.02;47.81
59391;BME280;53405;57.012;40.984;2023-05-16T05:17:18;100919.59;;;16.04;46.94
59391;BME280;53405;57.012;40.984;2023-05-16T05:19:47;100925.75;;;16.11;45.61
59391;BME280;53405;57.012;40.984;2023-05-16T05:22:15;100928.34;;;16.26;45.12
59391;BME280;53405;57.012;40.984;2023-05-16T05:24:43;100920.63;;;16.31;45.00
59391;BME280;53405;57.012;40.984;2023-05-16T05:27:10;100919.63;;;16.32;45.83
59391;BME280;53405;57.012;40.984;2023-05-16T05:29:38;100923.19;;;16.46;44.06
59391;BME280;53405;57.012;40.984;2023-05-16T05:32:06;100921.41;;;16.60;42.81
59391;BME280;53405;57.012;40.984;2023-05-16T05:34:34;100925.31;;;16.57;43.36
59391;BME280;53405;57.012;40.984;2023-05-16T05:37:02;100923.94;;;16.68;42.09
59391;BME280;53405;57.012;40.984;2023-05-16T05:39:30;100922.56;;;16.79;41.21
59391;BME280;53405;57.012;40.984;2023-05-16T05:41:59;100922.75;;;16.77;42.58
59391;BME280;53405;57.012;40.984;2023-05-16T05:44:26;100924.25;;;16.87;42.76
59391;BME280;53405;57.012;40.984;2023-05-16T05:46:54;100901.72;;;16.83;41.33
59391;BME280;53405;57.012;40.984;2023-05-16T05:49:24;100923.16;;;17.09;41.21
59391;BME280;53405;57.012;40.984;2023-05-16T05:51:52;100927.72;;;17.22;41.67
59391;BME280;53405;57.012;40.984;2023-05-16T05:54:21;100907.03;;;17.18;40.28
59391;BME280;53405;57.012;40.984;2023-05-16T05:56:48;100904.97;;;17.20;39.49
59391;BME280;53405;57.012;40.984;2023-05-16T05:59:16;100926.16;;;17.48;39.74
59391;BME280;53405;57.012;40.984;2023-05-16T06:01:44;100927.41;;;17.52;39.59
59391;BME280;53405;57.012;40.984;2023-05-16T06:04:11;100927.41;;;17.59;38.78
59391;BME280;53405;57.012;40.984;2023-05-16T06:06:39;100930.72;;;17.67;39.40
59391;BME280;53405;57.012;40.984;2023-05-16T06:09:06;100925.19;;;17.69;38.77
59391;BME280;53405;57.012;40.984;2023-05-16T06:11:34;100929.69;;;17.75;39.23
59391;BME280;53405;57.012;40.984;2023-05-16T06:14:02;100930.94;;;17.79;38.77
59391;BME280;53405;57.012;40.984;2023-05-16T06:16:30;100923.22;;;17.91;38.53
59391;BME280;53405;57.012;40.984;2023-05-16T06:18:57;100927.50;;;17.99;39.27
59391;BME280;53405;57.012;40.984;2023-05-16T06:21:25;100924.44;;;18.09;37.54
59391;BME280;53405;57.012;40.984;2023-05-16T06:23:53;100933.25;;;18.09;37.53
59391;BME280;53405;57.012;40.984;2023-05-16T06:26:21;100904.56;;;17.98;36.27
59391;BME280;53405;57.012;40.984;2023-05-16T06:28:49;100930.78;;;18.21;37.46
59391;BME280;53405;57.012;40.984;2023-05-16T06:31:16;100929.16;;;18.13;36.70
59391;BME280;53405;57.012;40.984;2023-05-16T06:33:44;100935.50;;;18.19;36.98
59391;BME280;53405;57.012;40.984;2023-05-16T06:36:12;100931.59;;;18.41;37.44
59391;BME280;53405;57.012;40.984;2023-05-16T06:38:39;100941.03;;;18.37;35.71
59391;BME280;53405;57.012;40.984;2023-05-16T06:41:07;100932.44;;;18.35;36.50
59391;BME280;53405;57.012;40.984;2023-05-16T06:43:35;100931.78;;;18.33;36.96
59391;BME280;53405;57.012;40.984;2023-05-16T06:46:04;100935.91;;;18.42;36.03
59391;BME280;53405;57.012;40.984;2023-05-16T06:48:31;100946.75;;;18.61;35.96
59391;BME280;53405;57.012;40.984;2023-05-16T06:50:59;100946.31;;;18.71;36.26
59391;BME280;53405;57.012;40.984;2023-05-16T06:53:27;100946.50;;;18.83;36.33
59391;BME280;53405;57.012;40.984;2023-05-16T06:55:55;100942.19;;;18.88;36.37
59391;BME280;53405;57.012;40.984;2023-05-16T06:58:23;100942.59;;;18.92;35.61
59391;BME280;53405;57.012;40.984;2023-05-16T07:00:50;100946.13;;;18.86;35.78
59391;BME280;53405;57.012;40.984;2023-05-16T07:03:18;100941.56;;;18.93;36.21
59391;BME280;53405;57.012;40.984;2023-05-16T07:05:46;100939.06;;;19.11;34.08
59391;BME280;53405;57.012;40.984;2023-05-16T07:08:14;100942.31;;;19.13;33.81
59391;BME280;53405;57.012;40.984;2023-05-16T07:10:42;100942.09;;;19.15;34.61
59391;BME280;53405;57.012;40.984;2023-05-16T07:13:10;100951.56;;;19.18;32.66
59391;BME280;53405;57.012;40.984;2023-05-16T07:15:38;100951.34;;;19.19;33.20
59391;BME280;53405;57.012;40.984;2023-05-16T07:18:06;100940.84;;;19.24;33.21
59391;BME280;53405;57.012;40.984;2023-05-16T07:20:33;100932.66;;;19.19;33.08
59391;BME280;53405;57.012;40.984;2023-05-16T07:23:01;100941.84;;;19.23;33.63
59391;BME280;53405;57.012;40.984;2023-05-16T07:25:29;100917.03;;;19.23;34.96
59391;BME280;53405;57.012;40.984;2023-05-16T07:27:57;100925.75;;;19.43;33.48
59391;BME280;53405;57.012;40.984;2023-05-16T07:30:25;100927.09;;;19.59;33.59
59391;BME280;53405;57.012;40.984;2023-05-16T07:32:52;100922.75;;;19.65;33.30
59391;BME280;53405;57.012;40.984;2023-05-16T07:35:20;100943.47;;;19.76;33.36
59391;BME280;53405;57.012;40.984;2023-05-16T07:37:48;100930.94;;;19.70;34.85
59391;BME280;53405;57.012;40.984;2023-05-16T07:40:16;100939.34;;;19.80;33.79
59391;BME280;53405;57.012;40.984;2023-05-16T07:42:46;100926.88;;;19.99;33.66
59391;BME280;53405;57.012;40.984;2023-05-16T07:45:14;100932.09;;;20.13;33.75
59391;BME280;53405;57.012;40.984;2023-05-16T07:47:42;100931.00;;;20.20;32.72
59391;BME280;53405;57.012;40.984;2023-05-16T07:50:10;100885.13;;;19.98;32.97
59391;BME280;53405;57.012;40.984;2023-05-16T07:52:37;100931.56;;;20.29;32.29
59391;BME280;53405;57.012;40.984;2023-05-16T07:55:06;100917.25;;;20.17;35.18
59391;BME280;53405;57.012;40.984;2023-05-16T07:57:35;100926.38;;;20.34;32.23
59391;BME280;53405;57.012;40.984;2023-05-16T08:00:03;100924.41;;;20.23;34.21
59391;BME280;53405;57.012;40.984;2023-05-16T08:02:39;100921.50;;;20.50;32.21
59391;BME280;53405;57.012;40.984;2023-05-16T08:05:07;100922.75;;;20.47;31.61
59391;BME280;53405;57.012;40.984;2023-05-16T08:07:37;100921.31;;;20.45;32.70
59391;BME280;53405;57.012;40.984;2023-05-16T08:10:05;100927.78;;;20.55;34.03
59391;BME280;53405;57.012;40.984;2023-05-16T08:12:33;100926.06;;;20.68;32.99
59391;BME280;53405;57.012;40.984;2023-05-16T08:15:02;100925.69;;;20.64;33.66
59391;BME280;53405;57.012;40.984;2023-05-16T08:17:31;100917.50;;;20.78;33.32
59391;BME280;53405;57.012;40.984;2023-05-16T08:19:59;100923.63;;;21.03;30.91
59391;BME280;53405;57.012;40.984;2023-05-16T08:22:30;100921.34;;;21.19;29.83
59391;BME280;53405;57.012;40.984;2023-05-16T08:24:58;100905.13;;;21.44;30.77
59391;BME280;53405;57.012;40.984;2023-05-16T08:27:27;100917.81;;;21.67;29.65
59391;BME280;53405;57.012;40.984;2023-05-16T08:29:56;100912.00;;;21.40;30.22
59391;BME280;53405;57.012;40.984;2023-05-16T08:32:23;100918.63;;;21.68;31.38
59391;BME280;53405;57.012;40.984;2023-05-16T08:34:51;100925.91;;;21.48;30.23
59391;BME280;53405;57.012;40.984;2023-05-16T08:37:18;100913.94;;;22.05;30.60
59391;BME280;53405;57.012;40.984;2023-05-16T08:39:47;100911.03;;;22.18;29.32
59391;BME280;53405;57.012;40.984;2023-05-16T08:42:14;100901.13;;;22.31;29.07
59391;BME280;53405;57.012;40.984;2023-05-16T08:44:42;100908.22;;;22.61;28.90
59391;BME280;53405;57.012;40.984;2023-05-16T08:47:17;100910.16;;;22.89;28.81
59391;BME280;53405;57.012;40.984;2023-05-16T08:49:50;100908.34;;;23.18;27.13
59391;BME280;53405;57.012;40.984;2023-05-16T08:52:20;100917.06;;;23.25;27.10
59391;BME280;53405;57.012;40.984;2023-05-16T08:54:49;100898.09;;;23.61;28.28
59391;BME280;53405;57.012;40.984;2023-05-16T08:57:32;100896.47;;;23.77;26.10
59391;BME280;53405;57.012;40.984;2023-05-16T09:00:01;100907.59;;;24.14;26.25
59391;BME280;53405;57.012;40.984;2023-05-16T09:02:34;100908.78;;;24.24;25.83
59391;BME280;53405;57.012;40.984;2023-05-16T09:05:03;100902.44;;;24.13;25.90
59391;BME280;53405;57.012;40.984;2023-05-16T09:07:32;100896.47;;;23.77;25.90
59391;BME280;53405;57.012;40.984;2023-05-16T09:09:59;100894.66;;;23.49;26.30
59391;BME280;53405;57.012;40.984;2023-05-16T09:12:30;100899.09;;;24.06;26.51
59391;BME280;53405;57.012;40.984;2023-05-16T09:15:01;100887.06;;;24.47;25.52
59391;BME280;53405;57.012;40.984;2023-05-16T09:17:44;100894.75;;;24.22;24.97
59391;BME280;53405;57.012;40.984;2023-05-16T09:20:14;100862.53;;;23.88;26.40
59391;BME280;53405;57.012;40.984;2023-05-16T09:22:56;100889.41;;;23.88;25.90
59391;BME280;53405;57.012;40.984;2023-05-16T09:25:27;100891.19;;;23.65;26.42
59391;BME280;53405;57.012;40.984;2023-05-16T09:28:00;100887.22;;;24.02;25.87
59391;BME280;53405;57.012;40.984;2023-05-16T09:30:31;100887.38;;;24.51;27.04
59391;BME280;53405;57.012;40.984;2023-05-16T09:33:00;100888.16;;;25.18;25.01
59391;BME280;53405;57.012;40.984;2023-05-16T09:35:28;100879.88;;;25.47;24.50
59391;BME280;53405;57.012;40.984;2023-05-16T09:37:58;100876.81;;;25.38;23.37
59391;BME280;53405;57.012;40.984;2023-05-16T09:40:27;100874.00;;;24.78;24.87
59391;BME280;53405;57.012;40.984;2023-05-16T09:43:03;100881.44;;;24.93;25.70
59391;BME280;53405;57.012;40.984;2023-05-16T09:45:32;100877.69;;;25.43;24.40
59391;BME280;53405;57.012;40.984;2023-05-16T09:48:04;100874.66;;;25.67;23.30
59391;BME280;53405;57.012;40.984;2023-05-16T09:50:33;100877.59;;;25.11;25.42
59391;BME280;53405;57.012;40.984;2023-05-16T09:53:02;100841.59;;;24.95;25.58
59391;BME280;53405;57.012;40.984;2023-05-16T09:55:30;100870.34;;;25.71;23.14
59391;BME280;53405;57.012;40.984;2023-05-16T09:57:58;100870.13;;;26.15;23.56
59391;BME280;53405;57.012;40.984;2023-05-16T10:00:31;100845.94;;;26.36;22.96
59391;BME280;53405;57.012;40.984;2023-05-16T10:03:00;100861.50;;;26.13;25.06
59391;BME280;53405;57.012;40.984;2023-05-16T10:05:30;100855.06;;;26.20;23.10
59391;BME280;53405;57.012;40.984;2023-05-16T10:07:58;100855.16;;;26.40;23.89
59391;BME280;53405;57.012;40.984;2023-05-16T10:10:28;100848.81;;;26.67;23.44
59391;BME280;53405;57.012;40.984;2023-05-16T10:12:57;100854.19;;;26.62;24.51
59391;BME280;53405;57.012;40.984;2023-05-16T10:15:28;100845.91;;;26.94;22.58
59391;BME280;53405;57.012;40.984;2023-05-16T10:17:57;100848.66;;;26.99;22.88
59391;BME280;53405;57.012;40.984;2023-05-16T10:20:27;100849.69;;;26.83;23.04
59391;BME280;53405;57.012;40.984;2023-05-16T10:22:55;100845.25;;;26.56;22.27
59391;BME280;53405;57.012;40.984;2023-05-16T10:25:28;100850.19;;;26.70;23.41
59391;BME280;53405;57.012;40.984;2023-05-16T10:27:58;100843.75;;;26.23;23.67
59391;BME280;53405;57.012;40.984;2023-05-16T10:30:27;100848.09;;;26.97;22.68
59391;BME280;53405;57.012;40.984;2023-05-16T10:32:55;100847.63;;;27.36;22.40
59391;BME280;53405;57.012;40.984;2023-05-16T10:35:23;100852.72;;;27.22;24.00
59391;BME280;53405;57.012;40.984;2023-05-16T10:37:51;100849.25;;;27.53;21.52
59391;BME280;53405;57.012;40.984;2023-05-16T10:40:20;100847.13;;;27.50;22.51
59391;BME280;53405;57.012;40.984;2023-05-16T10:42:57;100832.75;;;27.70;22.89
59391;BME280;53405;57.012;40.984;2023-05-16T10:45:25;100832.44;;;28.07;22.58
59391;BME280;53405;57.012;40.984;2023-05-16T10:50:35;100826.78;;;27.73;20.80
59391;BME280;53405;57.012;40.984;2023-05-16T10:53:22;100827.63;;;27.53;21.22
59391;BME280;53405;57.012;40.984;2023-05-16T11:06:33;100812.38;;;28.79;21.98
59391;BME280;53405;57.012;40.984;2023-05-16T11:11:43;100805.91;;;28.75;20.68
59391;BME280;53405;57.012;40.984;2023-05-16T11:14:23;100805.09;;;28.79;20.54
59391;BME280;53405;57.012;40.984;2023-05-16T11:16:59;100808.84;;;28.83;20.64
59391;BME280;53405;57.012;40.984;2023-05-16T11:19:30;100805.63;;;28.76;20.03
59391;BME280;53405;57.012;40.984;2023-05-16T11:22:08;100807.16;;;28.43;21.53
59391;BME280;53405;57.012;40.984;2023-05-16T11:24:38;100806.00;;;27.58;23.16
59391;BME280;53405;57.012;40.984;2023-05-16T11:27:06;100806.75;;;27.89;21.56
59391;BME280;53405;57.012;40.984;2023-05-16T11:29:34;100801.31;;;28.05;22.23
59391;BME280;53405;57.012;40.984;2023-05-16T11:32:03;100795.16;;;28.54;21.20
59391;BME280;53405;57.012;40.984;2023-05-16T11:34:35;100798.41;;;28.61;20.78
59391;BME280;53405;57.012;40.984;2023-05-16T11:37:06;100802.59;;;28.83;20.32
59391;BME280;53405;57.012;40.984;2023-05-16T11:39:39;100802.84;;;28.92;20.14
59391;BME280;53405;57.012;40.984;2023-05-16T11:42:07;100793.81;;;28.52;21.14
59391;BME280;53405;57.012;40.984;2023-05-16T11:44:35;100799.31;;;28.41;21.13
59391;BME280;53405;57.012;40.984;2023-05-16T11:47:04;100796.41;;;28.17;21.49
59391;BME280;53405;57.012;40.984;2023-05-16T11:49:33;100789.72;;;27.84;21.38
59391;BME280;53405;57.012;40.984;2023-05-16T11:52:02;100783.50;;;27.83;21.06
59391;BME280;53405;57.012;40.984;2023-05-16T11:54:30;100785.16;;;27.22;21.69
59391;BME280;53405;57.012;40.984;2023-05-16T11:56:59;100776.75;;;27.65;22.30
59391;BME280;53405;57.012;40.984;2023-05-16T11:59:27;100786.47;;;27.87;21.20
59391;BME280;53405;57.012;40.984;2023-05-16T12:01:54;100780.94;;;28.28;21.25
59391;BME280;53405;57.012;40.984;2023-05-16T12:04:22;100778.63;;;28.61;20.53
59391;BME280;53405;57.012;40.984;2023-05-16T12:07:00;100779.19;;;28.97;20.81
59391;BME280;53405;57.012;40.984;2023-05-16T12:09:30;100778.59;;;29.06;20.88
59391;BME280;53405;57.012;40.984;2023-05-16T12:12:03;100782.56;;;29.24;20.56
59391;BME280;53405;57.012;40.984;2023-05-16T12:14:33;100764.53;;;28.64;19.99
59391;BME280;53405;57.012;40.984;2023-05-16T12:17:03;100779.72;;;27.79;21.80
59391;BME280;53405;57.012;40.984;2023-05-16T12:19:30;100779.47;;;27.19;22.70
59391;BME280;53405;57.012;40.984;2023-05-16T12:21:58;100749.84;;;26.30;23.72
59391;BME280;53405;57.012;40.984;2023-05-16T12:24:29;100770.63;;;26.35;24.01
59391;BME280;53405;57.012;40.984;2023-05-16T12:26:58;100768.81;;;26.56;22.74
59391;BME280;53405;57.012;40.984;2023-05-16T12:29:25;100768.59;;;26.67;22.77
59391;BME280;53405;57.012;40.984;2023-05-16T12:31:53;100764.69;;;26.27;25.54
59391;BME280;53405;57.012;40.984;2023-05-16T12:34:21;100761.38;;;26.10;24.54
59391;BME280;53405;57.012;40.984;2023-05-16T12:36:51;100764.19;;;25.83;24.73
59391;BME280;53405;57.012;40.984;2023-05-16T12:39:21;100752.00;;;25.75;23.69
59391;BME280;53405;57.012;40.984;2023-05-16T12:41:52;100759.00;;;25.38;24.01
59391;BME280;53405;57.012;40.984;2023-05-16T12:44:20;100755.50;;;24.56;26.38
59391;BME280;53405;57.012;40.984;2023-05-16T12:46:50;100751.25;;;24.33;26.54
59391;BME280;53405;57.012;40.984;2023-05-16T12:49:19;100736.34;;;24.03;25.48
59391;BME280;53405;57.012;40.984;2023-05-16T12:51:52;100747.38;;;23.85;25.14
59391;BME280;53405;57.012;40.984;2023-05-16T12:54:20;100740.53;;;23.94;25.90
59391;BME280;53405;57.012;40.984;2023-05-16T12:56:49;100740.28;;;23.95;25.17
59391;BME280;53405;57.012;40.984;2023-05-16T12:59:16;100749.16;;;23.96;25.27
59391;BME280;53405;57.012;40.984;2023-05-16T13:01:46;100750.28;;;24.00;25.67
59391;BME280;53405;57.012;40.984;2023-05-16T13:04:16;100743.66;;;24.08;25.00
59391;BME280;53405;57.012;40.984;2023-05-16T13:06:46;100734.00;;;24.12;25.48
59391;BME280;53405;57.012;40.984;2023-05-16T13:09:24;100735.09;;;24.11;25.81
59391;BME280;53405;57.012;40.984;2023-05-16T13:11:54;100743.28;;;23.99;25.67
59391;BME280;53405;57.012;40.984;2023-05-16T13:14:22;100743.97;;;23.89;26.51
59391;BME280;53405;57.012;40.984;2023-05-16T13:16:50;100740.59;;;23.99;26.63
59391;BME280;53405;57.012;40.984;2023-05-16T13:19:18;100733.56;;;24.20;25.59